<?xml version="1.0" encoding="UTF-8" standalone="no" ?>
<gpx xmlns="http://www.topografix.com/GPX/1/1" xmlns:xsi="http://www.w3.org/2001/XMLSchema-instance" xsi:schemaLocation="http://www.topografix.com/GPX/1/1 http://www.topografix.com/GPX/1/1/gpx.xsd" version="1.1" creator="VisuGPX - https://www.visugpx.com">
  <metadata>
    <name>Kerfissien - An Amied</name>
  </metadata>
  <trk>
    <name><![CDATA[Randonnée du 17/08/2022 à 11:08]]></name>
    <trkseg>
      <trkpt lat="48.6893" lon="-4.15952">
        <ele>60</ele>
        <time>2022-08-17T11:08:32+02:00</time>
      </trkpt>
      <trkpt lat="48.68947" lon="-4.15975">
        <ele>60</ele>
        <time>2022-08-17T11:08:56+02:00</time>
      </trkpt>
      <trkpt lat="48.68955" lon="-4.16009">
        <ele>60</ele>
        <time>2022-08-17T11:09:24+02:00</time>
      </trkpt>
      <trkpt lat="48.68967" lon="-4.16039">
        <ele>60</ele>
        <time>2022-08-17T11:09:50+02:00</time>
      </trkpt>
      <trkpt lat="48.68981" lon="-4.16066">
        <ele>60</ele>
        <time>2022-08-17T11:10:14+02:00</time>
      </trkpt>
      <trkpt lat="48.68997" lon="-4.1609">
        <ele>60</ele>
        <time>2022-08-17T11:10:35+02:00</time>
      </trkpt>
      <trkpt lat="48.69003" lon="-4.16125">
        <ele>60</ele>
        <time>2022-08-17T11:10:59+02:00</time>
      </trkpt>
      <trkpt lat="48.6898" lon="-4.16122">
        <ele>66</ele>
        <time>2022-08-17T11:11:27+02:00</time>
      </trkpt>
      <trkpt lat="48.68957" lon="-4.16116">
        <ele>60</ele>
        <time>2022-08-17T11:11:53+02:00</time>
      </trkpt>
      <trkpt lat="48.68938" lon="-4.16094">
        <ele>60</ele>
        <time>2022-08-17T11:12:18+02:00</time>
      </trkpt>
      <trkpt lat="48.68915" lon="-4.16103">
        <ele>62</ele>
        <time>2022-08-17T11:12:46+02:00</time>
      </trkpt>
      <trkpt lat="48.68892" lon="-4.16091">
        <ele>60</ele>
        <time>2022-08-17T11:13:17+02:00</time>
      </trkpt>
      <trkpt lat="48.68868" lon="-4.1608">
        <ele>60</ele>
        <time>2022-08-17T11:13:43+02:00</time>
      </trkpt>
      <trkpt lat="48.68872" lon="-4.16046">
        <ele>60</ele>
        <time>2022-08-17T11:14:08+02:00</time>
      </trkpt>
      <trkpt lat="48.68856" lon="-4.1602">
        <ele>60</ele>
        <time>2022-08-17T11:14:28+02:00</time>
      </trkpt>
      <trkpt lat="48.68833" lon="-4.16018">
        <ele>58</ele>
        <time>2022-08-17T11:14:59+02:00</time>
      </trkpt>
      <trkpt lat="48.6881" lon="-4.16006">
        <ele>58</ele>
        <time>2022-08-17T11:15:28+02:00</time>
      </trkpt>
      <trkpt lat="48.68792" lon="-4.16031">
        <ele>58</ele>
        <time>2022-08-17T11:15:55+02:00</time>
      </trkpt>
      <trkpt lat="48.68772" lon="-4.16047">
        <ele>61</ele>
        <time>2022-08-17T11:16:33+02:00</time>
      </trkpt>
      <trkpt lat="48.68747" lon="-4.16044">
        <ele>57</ele>
        <time>2022-08-17T11:16:56+02:00</time>
      </trkpt>
      <trkpt lat="48.68722" lon="-4.16041">
        <ele>57</ele>
        <time>2022-08-17T11:17:18+02:00</time>
      </trkpt>
      <trkpt lat="48.68698" lon="-4.16038">
        <ele>57</ele>
        <time>2022-08-17T11:17:39+02:00</time>
      </trkpt>
      <trkpt lat="48.68675" lon="-4.16027">
        <ele>57</ele>
        <time>2022-08-17T11:18:05+02:00</time>
      </trkpt>
      <trkpt lat="48.68651" lon="-4.16022">
        <ele>57</ele>
        <time>2022-08-17T11:18:31+02:00</time>
      </trkpt>
      <trkpt lat="48.68628" lon="-4.16012">
        <ele>51</ele>
        <time>2022-08-17T11:18:54+02:00</time>
      </trkpt>
      <trkpt lat="48.68604" lon="-4.16011">
        <ele>52</ele>
        <time>2022-08-17T11:19:20+02:00</time>
      </trkpt>
      <trkpt lat="48.68579" lon="-4.16012">
        <ele>53</ele>
        <time>2022-08-17T11:19:44+02:00</time>
      </trkpt>
      <trkpt lat="48.68554" lon="-4.16017">
        <ele>51</ele>
        <time>2022-08-17T11:20:07+02:00</time>
      </trkpt>
      <trkpt lat="48.68549" lon="-4.16051">
        <ele>51</ele>
        <time>2022-08-17T11:20:46+02:00</time>
      </trkpt>
      <trkpt lat="48.68532" lon="-4.16078">
        <ele>52</ele>
        <time>2022-08-17T11:21:09+02:00</time>
      </trkpt>
      <trkpt lat="48.68509" lon="-4.16067">
        <ele>53</ele>
        <time>2022-08-17T11:21:47+02:00</time>
      </trkpt>
      <trkpt lat="48.68484" lon="-4.1606">
        <ele>52</ele>
        <time>2022-08-17T11:22:11+02:00</time>
      </trkpt>
      <trkpt lat="48.68469" lon="-4.16031">
        <ele>51</ele>
        <time>2022-08-17T11:22:34+02:00</time>
      </trkpt>
      <trkpt lat="48.68476" lon="-4.15997">
        <ele>56</ele>
        <time>2022-08-17T11:23:01+02:00</time>
      </trkpt>
      <trkpt lat="48.68475" lon="-4.15961">
        <ele>56</ele>
        <time>2022-08-17T11:23:37+02:00</time>
      </trkpt>
      <trkpt lat="48.68473" lon="-4.15925">
        <ele>59</ele>
        <time>2022-08-17T11:24:10+02:00</time>
      </trkpt>
      <trkpt lat="48.68471" lon="-4.15889">
        <ele>58</ele>
        <time>2022-08-17T11:24:36+02:00</time>
      </trkpt>
      <trkpt lat="48.68459" lon="-4.15856">
        <ele>59</ele>
        <time>2022-08-17T11:24:57+02:00</time>
      </trkpt>
      <trkpt lat="48.68451" lon="-4.15822">
        <ele>60</ele>
        <time>2022-08-17T11:25:29+02:00</time>
      </trkpt>
      <trkpt lat="48.68445" lon="-4.15787">
        <ele>62</ele>
        <time>2022-08-17T11:25:51+02:00</time>
      </trkpt>
      <trkpt lat="48.68457" lon="-4.15754">
        <ele>58</ele>
        <time>2022-08-17T11:26:15+02:00</time>
      </trkpt>
      <trkpt lat="48.68467" lon="-4.15722">
        <ele>59</ele>
        <time>2022-08-17T11:26:43+02:00</time>
      </trkpt>
      <trkpt lat="48.68491" lon="-4.15713">
        <ele>62</ele>
        <time>2022-08-17T11:27:03+02:00</time>
      </trkpt>
      <trkpt lat="48.68513" lon="-4.1571">
        <ele>62</ele>
        <time>2022-08-17T11:28:23+02:00</time>
      </trkpt>
      <trkpt lat="48.68536" lon="-4.15701">
        <ele>62</ele>
        <time>2022-08-17T11:28:45+02:00</time>
      </trkpt>
      <trkpt lat="48.68556" lon="-4.15682">
        <ele>60</ele>
        <time>2022-08-17T11:29:08+02:00</time>
      </trkpt>
      <trkpt lat="48.68562" lon="-4.15645">
        <ele>62</ele>
        <time>2022-08-17T11:29:30+02:00</time>
      </trkpt>
      <trkpt lat="48.6857" lon="-4.15611">
        <ele>62</ele>
        <time>2022-08-17T11:29:52+02:00</time>
      </trkpt>
      <trkpt lat="48.68582" lon="-4.1558">
        <ele>62</ele>
        <time>2022-08-17T11:30:11+02:00</time>
      </trkpt>
      <trkpt lat="48.68582" lon="-4.15546">
        <ele>59</ele>
        <time>2022-08-17T11:30:30+02:00</time>
      </trkpt>
      <trkpt lat="48.68576" lon="-4.1551">
        <ele>59</ele>
        <time>2022-08-17T11:30:52+02:00</time>
      </trkpt>
      <trkpt lat="48.68568" lon="-4.15477">
        <ele>59</ele>
        <time>2022-08-17T11:31:15+02:00</time>
      </trkpt>
      <trkpt lat="48.68559" lon="-4.15445">
        <ele>55</ele>
        <time>2022-08-17T11:32:24+02:00</time>
      </trkpt>
      <trkpt lat="48.68536" lon="-4.15432">
        <ele>52</ele>
        <time>2022-08-17T11:32:48+02:00</time>
      </trkpt>
      <trkpt lat="48.68513" lon="-4.15421">
        <ele>51</ele>
        <time>2022-08-17T11:33:09+02:00</time>
      </trkpt>
      <trkpt lat="48.68492" lon="-4.15402">
        <ele>52</ele>
        <time>2022-08-17T11:33:35+02:00</time>
      </trkpt>
      <trkpt lat="48.6847" lon="-4.15388">
        <ele>52</ele>
        <time>2022-08-17T11:33:56+02:00</time>
      </trkpt>
      <trkpt lat="48.68446" lon="-4.15393">
        <ele>51</ele>
        <time>2022-08-17T11:34:23+02:00</time>
      </trkpt>
      <trkpt lat="48.68423" lon="-4.15386">
        <ele>53</ele>
        <time>2022-08-17T11:34:43+02:00</time>
      </trkpt>
      <trkpt lat="48.684" lon="-4.15379">
        <ele>52</ele>
        <time>2022-08-17T11:35:17+02:00</time>
      </trkpt>
      <trkpt lat="48.68376" lon="-4.15374">
        <ele>55</ele>
        <time>2022-08-17T11:35:40+02:00</time>
      </trkpt>
      <trkpt lat="48.68352" lon="-4.15364">
        <ele>56</ele>
        <time>2022-08-17T11:36:05+02:00</time>
      </trkpt>
      <trkpt lat="48.68331" lon="-4.15351">
        <ele>54</ele>
        <time>2022-08-17T11:36:23+02:00</time>
      </trkpt>
      <trkpt lat="48.68328" lon="-4.15315">
        <ele>61</ele>
        <time>2022-08-17T11:36:45+02:00</time>
      </trkpt>
      <trkpt lat="48.6833" lon="-4.15281">
        <ele>59</ele>
        <time>2022-08-17T11:37:10+02:00</time>
      </trkpt>
      <trkpt lat="48.68327" lon="-4.15247">
        <ele>59</ele>
        <time>2022-08-17T11:37:30+02:00</time>
      </trkpt>
      <trkpt lat="48.68338" lon="-4.15215">
        <ele>59</ele>
        <time>2022-08-17T11:37:53+02:00</time>
      </trkpt>
      <trkpt lat="48.68356" lon="-4.15193">
        <ele>59</ele>
        <time>2022-08-17T11:38:14+02:00</time>
      </trkpt>
      <trkpt lat="48.68374" lon="-4.15166">
        <ele>53</ele>
        <time>2022-08-17T11:38:36+02:00</time>
      </trkpt>
      <trkpt lat="48.68387" lon="-4.15138">
        <ele>52</ele>
        <time>2022-08-17T11:38:56+02:00</time>
      </trkpt>
      <trkpt lat="48.68409" lon="-4.15121">
        <ele>56</ele>
        <time>2022-08-17T11:41:40+02:00</time>
      </trkpt>
      <trkpt lat="48.68432" lon="-4.15127">
        <ele>54</ele>
        <time>2022-08-17T11:41:58+02:00</time>
      </trkpt>
      <trkpt lat="48.68455" lon="-4.15131">
        <ele>54</ele>
        <time>2022-08-17T11:42:18+02:00</time>
      </trkpt>
      <trkpt lat="48.68478" lon="-4.15132">
        <ele>56</ele>
        <time>2022-08-17T11:42:38+02:00</time>
      </trkpt>
      <trkpt lat="48.68501" lon="-4.15139">
        <ele>54</ele>
        <time>2022-08-17T11:42:58+02:00</time>
      </trkpt>
      <trkpt lat="48.68525" lon="-4.15145">
        <ele>54</ele>
        <time>2022-08-17T11:43:20+02:00</time>
      </trkpt>
      <trkpt lat="48.68547" lon="-4.15161">
        <ele>54</ele>
        <time>2022-08-17T11:43:42+02:00</time>
      </trkpt>
      <trkpt lat="48.68567" lon="-4.15179">
        <ele>54</ele>
        <time>2022-08-17T11:44:03+02:00</time>
      </trkpt>
      <trkpt lat="48.68586" lon="-4.15153">
        <ele>46</ele>
        <time>2022-08-17T11:44:42+02:00</time>
      </trkpt>
      <trkpt lat="48.6859" lon="-4.15116">
        <ele>59</ele>
        <time>2022-08-17T11:45:03+02:00</time>
      </trkpt>
      <trkpt lat="48.68589" lon="-4.15079">
        <ele>59</ele>
        <time>2022-08-17T11:45:30+02:00</time>
      </trkpt>
      <trkpt lat="48.68592" lon="-4.15041">
        <ele>59</ele>
        <time>2022-08-17T11:45:53+02:00</time>
      </trkpt>
      <trkpt lat="48.68594" lon="-4.15005">
        <ele>59</ele>
        <time>2022-08-17T11:46:15+02:00</time>
      </trkpt>
      <trkpt lat="48.68595" lon="-4.14968">
        <ele>53</ele>
        <time>2022-08-17T11:46:37+02:00</time>
      </trkpt>
      <trkpt lat="48.68597" lon="-4.14935">
        <ele>52</ele>
        <time>2022-08-17T11:46:57+02:00</time>
      </trkpt>
      <trkpt lat="48.68598" lon="-4.14899">
        <ele>50</ele>
        <time>2022-08-17T11:47:18+02:00</time>
      </trkpt>
      <trkpt lat="48.6858" lon="-4.14874">
        <ele>53</ele>
        <time>2022-08-17T11:47:41+02:00</time>
      </trkpt>
      <trkpt lat="48.68567" lon="-4.14845">
        <ele>52</ele>
        <time>2022-08-17T11:48:32+02:00</time>
      </trkpt>
      <trkpt lat="48.68588" lon="-4.14859">
        <ele>54</ele>
        <time>2022-08-17T11:48:54+02:00</time>
      </trkpt>
      <trkpt lat="48.68611" lon="-4.14866">
        <ele>55</ele>
        <time>2022-08-17T11:51:52+02:00</time>
      </trkpt>
      <trkpt lat="48.68637" lon="-4.14858">
        <ele>56</ele>
        <time>2022-08-17T11:52:14+02:00</time>
      </trkpt>
      <trkpt lat="48.68658" lon="-4.14837">
        <ele>56</ele>
        <time>2022-08-17T11:52:35+02:00</time>
      </trkpt>
      <trkpt lat="48.68674" lon="-4.14809">
        <ele>55</ele>
        <time>2022-08-17T11:52:56+02:00</time>
      </trkpt>
      <trkpt lat="48.68689" lon="-4.14779">
        <ele>53</ele>
        <time>2022-08-17T11:53:17+02:00</time>
      </trkpt>
      <trkpt lat="48.68703" lon="-4.1475">
        <ele>53</ele>
        <time>2022-08-17T11:53:56+02:00</time>
      </trkpt>
      <trkpt lat="48.68727" lon="-4.14749">
        <ele>48</ele>
        <time>2022-08-17T11:54:28+02:00</time>
      </trkpt>
      <trkpt lat="48.68751" lon="-4.14738">
        <ele>53</ele>
        <time>2022-08-17T11:54:48+02:00</time>
      </trkpt>
      <trkpt lat="48.68773" lon="-4.14722">
        <ele>54</ele>
        <time>2022-08-17T11:55:10+02:00</time>
      </trkpt>
      <trkpt lat="48.68794" lon="-4.14702">
        <ele>53</ele>
        <time>2022-08-17T11:55:33+02:00</time>
      </trkpt>
      <trkpt lat="48.68813" lon="-4.14684">
        <ele>52</ele>
        <time>2022-08-17T11:55:50+02:00</time>
      </trkpt>
      <trkpt lat="48.68829" lon="-4.14656">
        <ele>51</ele>
        <time>2022-08-17T11:56:13+02:00</time>
      </trkpt>
      <trkpt lat="48.6885" lon="-4.14638">
        <ele>54</ele>
        <time>2022-08-17T11:56:33+02:00</time>
      </trkpt>
      <trkpt lat="48.68867" lon="-4.14613">
        <ele>54</ele>
        <time>2022-08-17T11:56:54+02:00</time>
      </trkpt>
      <trkpt lat="48.68871" lon="-4.14578">
        <ele>55</ele>
        <time>2022-08-17T11:57:46+02:00</time>
      </trkpt>
      <trkpt lat="48.68853" lon="-4.14558">
        <ele>57</ele>
        <time>2022-08-17T11:58:07+02:00</time>
      </trkpt>
      <trkpt lat="48.68829" lon="-4.14561">
        <ele>57</ele>
        <time>2022-08-17T11:58:34+02:00</time>
      </trkpt>
      <trkpt lat="48.68805" lon="-4.14559">
        <ele>55</ele>
        <time>2022-08-17T11:58:55+02:00</time>
      </trkpt>
      <trkpt lat="48.68782" lon="-4.14567">
        <ele>55</ele>
        <time>2022-08-17T11:59:16+02:00</time>
      </trkpt>
      <trkpt lat="48.68761" lon="-4.14585">
        <ele>55</ele>
        <time>2022-08-17T11:59:37+02:00</time>
      </trkpt>
      <trkpt lat="48.68741" lon="-4.14602">
        <ele>55</ele>
        <time>2022-08-17T11:59:57+02:00</time>
      </trkpt>
      <trkpt lat="48.68732" lon="-4.1457">
        <ele>52</ele>
        <time>2022-08-17T12:00:22+02:00</time>
      </trkpt>
      <trkpt lat="48.68728" lon="-4.14533">
        <ele>52</ele>
        <time>2022-08-17T12:00:49+02:00</time>
      </trkpt>
      <trkpt lat="48.68722" lon="-4.145">
        <ele>51</ele>
        <time>2022-08-17T12:01:08+02:00</time>
      </trkpt>
      <trkpt lat="48.68712" lon="-4.14468">
        <ele>53</ele>
        <time>2022-08-17T12:01:36+02:00</time>
      </trkpt>
      <trkpt lat="48.68703" lon="-4.14435">
        <ele>50</ele>
        <time>2022-08-17T12:01:59+02:00</time>
      </trkpt>
      <trkpt lat="48.687" lon="-4.14397">
        <ele>52</ele>
        <time>2022-08-17T12:02:26+02:00</time>
      </trkpt>
      <trkpt lat="48.68695" lon="-4.14362">
        <ele>51</ele>
        <time>2022-08-17T12:02:52+02:00</time>
      </trkpt>
      <trkpt lat="48.6869" lon="-4.14325">
        <ele>50</ele>
        <time>2022-08-17T12:03:16+02:00</time>
      </trkpt>
      <trkpt lat="48.68684" lon="-4.1429">
        <ele>51</ele>
        <time>2022-08-17T12:03:39+02:00</time>
      </trkpt>
      <trkpt lat="48.68677" lon="-4.14254">
        <ele>50</ele>
        <time>2022-08-17T12:03:59+02:00</time>
      </trkpt>
      <trkpt lat="48.68682" lon="-4.1422">
        <ele>56</ele>
        <time>2022-08-17T12:04:33+02:00</time>
      </trkpt>
      <trkpt lat="48.6869" lon="-4.14186">
        <ele>56</ele>
        <time>2022-08-17T12:05:01+02:00</time>
      </trkpt>
      <trkpt lat="48.68705" lon="-4.14159">
        <ele>56</ele>
        <time>2022-08-17T12:05:22+02:00</time>
      </trkpt>
      <trkpt lat="48.68718" lon="-4.1413">
        <ele>56</ele>
        <time>2022-08-17T12:05:44+02:00</time>
      </trkpt>
      <trkpt lat="48.68716" lon="-4.14094">
        <ele>56</ele>
        <time>2022-08-17T12:06:04+02:00</time>
      </trkpt>
      <trkpt lat="48.68716" lon="-4.14057">
        <ele>56</ele>
        <time>2022-08-17T12:06:27+02:00</time>
      </trkpt>
      <trkpt lat="48.68736" lon="-4.14036">
        <ele>56</ele>
        <time>2022-08-17T12:06:54+02:00</time>
      </trkpt>
      <trkpt lat="48.68753" lon="-4.14012">
        <ele>55</ele>
        <time>2022-08-17T12:07:19+02:00</time>
      </trkpt>
      <trkpt lat="48.68765" lon="-4.13979">
        <ele>57</ele>
        <time>2022-08-17T12:07:42+02:00</time>
      </trkpt>
      <trkpt lat="48.68771" lon="-4.13945">
        <ele>56</ele>
        <time>2022-08-17T12:08:02+02:00</time>
      </trkpt>
      <trkpt lat="48.6878" lon="-4.13912">
        <ele>56</ele>
        <time>2022-08-17T12:08:25+02:00</time>
      </trkpt>
      <trkpt lat="48.688" lon="-4.13893">
        <ele>60</ele>
        <time>2022-08-17T12:08:56+02:00</time>
      </trkpt>
      <trkpt lat="48.68784" lon="-4.13865">
        <ele>60</ele>
        <time>2022-08-17T12:09:18+02:00</time>
      </trkpt>
      <trkpt lat="48.68768" lon="-4.13838">
        <ele>60</ele>
        <time>2022-08-17T12:09:57+02:00</time>
      </trkpt>
      <trkpt lat="48.68749" lon="-4.13816">
        <ele>59</ele>
        <time>2022-08-17T12:10:21+02:00</time>
      </trkpt>
      <trkpt lat="48.68724" lon="-4.13811">
        <ele>59</ele>
        <time>2022-08-17T12:11:06+02:00</time>
      </trkpt>
      <trkpt lat="48.68729" lon="-4.13776">
        <ele>59</ele>
        <time>2022-08-17T12:11:46+02:00</time>
      </trkpt>
      <trkpt lat="48.68748" lon="-4.13758">
        <ele>59</ele>
        <time>2022-08-17T12:12:08+02:00</time>
      </trkpt>
      <trkpt lat="48.68763" lon="-4.13728">
        <ele>59</ele>
        <time>2022-08-17T12:12:33+02:00</time>
      </trkpt>
      <trkpt lat="48.68763" lon="-4.13692">
        <ele>59</ele>
        <time>2022-08-17T12:13:24+02:00</time>
      </trkpt>
      <trkpt lat="48.68766" lon="-4.13658">
        <ele>61</ele>
        <time>2022-08-17T12:13:45+02:00</time>
      </trkpt>
      <trkpt lat="48.68771" lon="-4.13621">
        <ele>61</ele>
        <time>2022-08-17T12:14:08+02:00</time>
      </trkpt>
      <trkpt lat="48.68774" lon="-4.13587">
        <ele>61</ele>
        <time>2022-08-17T12:14:30+02:00</time>
      </trkpt>
      <trkpt lat="48.68768" lon="-4.13553">
        <ele>62</ele>
        <time>2022-08-17T12:14:50+02:00</time>
      </trkpt>
      <trkpt lat="48.68786" lon="-4.13532">
        <ele>61</ele>
        <time>2022-08-17T12:15:25+02:00</time>
      </trkpt>
      <trkpt lat="48.68811" lon="-4.13539">
        <ele>61</ele>
        <time>2022-08-17T12:15:47+02:00</time>
      </trkpt>
      <trkpt lat="48.68833" lon="-4.13528">
        <ele>61</ele>
        <time>2022-08-17T12:16:05+02:00</time>
      </trkpt>
      <trkpt lat="48.68852" lon="-4.13504">
        <ele>59</ele>
        <time>2022-08-17T12:16:34+02:00</time>
      </trkpt>
      <trkpt lat="48.68869" lon="-4.13476">
        <ele>61</ele>
        <time>2022-08-17T12:16:53+02:00</time>
      </trkpt>
      <trkpt lat="48.68893" lon="-4.13481">
        <ele>61</ele>
        <time>2022-08-17T12:17:18+02:00</time>
      </trkpt>
      <trkpt lat="48.68912" lon="-4.13503">
        <ele>62</ele>
        <time>2022-08-17T12:17:47+02:00</time>
      </trkpt>
      <trkpt lat="48.68936" lon="-4.1351">
        <ele>61</ele>
        <time>2022-08-17T12:18:34+02:00</time>
      </trkpt>
      <trkpt lat="48.68959" lon="-4.13508">
        <ele>61</ele>
        <time>2022-08-17T12:18:53+02:00</time>
      </trkpt>
      <trkpt lat="48.68982" lon="-4.13522">
        <ele>61</ele>
        <time>2022-08-17T12:19:15+02:00</time>
      </trkpt>
      <trkpt lat="48.69006" lon="-4.13529">
        <ele>61</ele>
        <time>2022-08-17T12:19:36+02:00</time>
      </trkpt>
      <trkpt lat="48.69031" lon="-4.13535">
        <ele>60</ele>
        <time>2022-08-17T12:19:56+02:00</time>
      </trkpt>
      <trkpt lat="48.69054" lon="-4.13529">
        <ele>61</ele>
        <time>2022-08-17T12:20:19+02:00</time>
      </trkpt>
      <trkpt lat="48.69077" lon="-4.13539">
        <ele>61</ele>
        <time>2022-08-17T12:21:01+02:00</time>
      </trkpt>
      <trkpt lat="48.691" lon="-4.13548">
        <ele>61</ele>
        <time>2022-08-17T12:21:21+02:00</time>
      </trkpt>
      <trkpt lat="48.69122" lon="-4.13555">
        <ele>60</ele>
        <time>2022-08-17T12:21:42+02:00</time>
      </trkpt>
      <trkpt lat="48.69145" lon="-4.13566">
        <ele>60</ele>
        <time>2022-08-17T12:22:02+02:00</time>
      </trkpt>
      <trkpt lat="48.69167" lon="-4.13581">
        <ele>60</ele>
        <time>2022-08-17T12:22:24+02:00</time>
      </trkpt>
      <trkpt lat="48.69186" lon="-4.13604">
        <ele>58</ele>
        <time>2022-08-17T12:22:46+02:00</time>
      </trkpt>
      <trkpt lat="48.69209" lon="-4.13616">
        <ele>60</ele>
        <time>2022-08-17T12:23:06+02:00</time>
      </trkpt>
      <trkpt lat="48.69232" lon="-4.13611">
        <ele>60</ele>
        <time>2022-08-17T12:23:30+02:00</time>
      </trkpt>
      <trkpt lat="48.69255" lon="-4.13608">
        <ele>60</ele>
        <time>2022-08-17T12:23:53+02:00</time>
      </trkpt>
      <trkpt lat="48.69278" lon="-4.13597">
        <ele>60</ele>
        <time>2022-08-17T12:24:17+02:00</time>
      </trkpt>
      <trkpt lat="48.69293" lon="-4.13571">
        <ele>60</ele>
        <time>2022-08-17T12:24:38+02:00</time>
      </trkpt>
      <trkpt lat="48.69311" lon="-4.13547">
        <ele>60</ele>
        <time>2022-08-17T12:24:59+02:00</time>
      </trkpt>
      <trkpt lat="48.69328" lon="-4.13522">
        <ele>60</ele>
        <time>2022-08-17T12:25:19+02:00</time>
      </trkpt>
      <trkpt lat="48.69342" lon="-4.13494">
        <ele>63</ele>
        <time>2022-08-17T12:25:41+02:00</time>
      </trkpt>
      <trkpt lat="48.69362" lon="-4.13473">
        <ele>61</ele>
        <time>2022-08-17T12:26:06+02:00</time>
      </trkpt>
      <trkpt lat="48.69381" lon="-4.1345">
        <ele>61</ele>
        <time>2022-08-17T12:26:27+02:00</time>
      </trkpt>
      <trkpt lat="48.69396" lon="-4.13424">
        <ele>61</ele>
        <time>2022-08-17T12:26:49+02:00</time>
      </trkpt>
      <trkpt lat="48.69408" lon="-4.13394">
        <ele>61</ele>
        <time>2022-08-17T12:27:12+02:00</time>
      </trkpt>
      <trkpt lat="48.69412" lon="-4.1336">
        <ele>61</ele>
        <time>2022-08-17T12:27:40+02:00</time>
      </trkpt>
      <trkpt lat="48.69417" lon="-4.13326">
        <ele>61</ele>
        <time>2022-08-17T12:28:03+02:00</time>
      </trkpt>
      <trkpt lat="48.69421" lon="-4.13286">
        <ele>61</ele>
        <time>2022-08-17T12:28:44+02:00</time>
      </trkpt>
      <trkpt lat="48.69423" lon="-4.13249">
        <ele>60</ele>
        <time>2022-08-17T12:29:08+02:00</time>
      </trkpt>
      <trkpt lat="48.69428" lon="-4.13211">
        <ele>60</ele>
        <time>2022-08-17T12:29:29+02:00</time>
      </trkpt>
      <trkpt lat="48.69434" lon="-4.13174">
        <ele>59</ele>
        <time>2022-08-17T12:29:51+02:00</time>
      </trkpt>
      <trkpt lat="48.69434" lon="-4.13136">
        <ele>60</ele>
        <time>2022-08-17T12:30:20+02:00</time>
      </trkpt>
      <trkpt lat="48.69431" lon="-4.131">
        <ele>59</ele>
        <time>2022-08-17T12:30:47+02:00</time>
      </trkpt>
      <trkpt lat="48.69428" lon="-4.13062">
        <ele>59</ele>
        <time>2022-08-17T12:31:06+02:00</time>
      </trkpt>
      <trkpt lat="48.69426" lon="-4.13025">
        <ele>59</ele>
        <time>2022-08-17T12:31:27+02:00</time>
      </trkpt>
      <trkpt lat="48.69425" lon="-4.1299">
        <ele>59</ele>
        <time>2022-08-17T12:31:49+02:00</time>
      </trkpt>
      <trkpt lat="48.69447" lon="-4.12978">
        <ele>59</ele>
        <time>2022-08-17T12:32:41+02:00</time>
      </trkpt>
      <trkpt lat="48.6947" lon="-4.12982">
        <ele>59</ele>
        <time>2022-08-17T12:33:02+02:00</time>
      </trkpt>
      <trkpt lat="48.69492" lon="-4.12993">
        <ele>58</ele>
        <time>2022-08-17T12:33:23+02:00</time>
      </trkpt>
      <trkpt lat="48.69516" lon="-4.13">
        <ele>57</ele>
        <time>2022-08-17T12:33:42+02:00</time>
      </trkpt>
      <trkpt lat="48.69541" lon="-4.12998">
        <ele>57</ele>
        <time>2022-08-17T12:34:16+02:00</time>
      </trkpt>
      <trkpt lat="48.69565" lon="-4.12999">
        <ele>59</ele>
        <time>2022-08-17T12:34:45+02:00</time>
      </trkpt>
      <trkpt lat="48.69592" lon="-4.13003">
        <ele>59</ele>
        <time>2022-08-17T12:36:09+02:00</time>
      </trkpt>
      <trkpt lat="48.69614" lon="-4.13016">
        <ele>59</ele>
        <time>2022-08-17T12:37:10+02:00</time>
      </trkpt>
      <trkpt lat="48.69634" lon="-4.13034">
        <ele>59</ele>
        <time>2022-08-17T12:37:29+02:00</time>
      </trkpt>
      <trkpt lat="48.69637" lon="-4.1307">
        <ele>63</ele>
        <time>2022-08-17T12:38:50+02:00</time>
      </trkpt>
      <trkpt lat="48.69615" lon="-4.13089">
        <ele>66</ele>
        <time>2022-08-17T12:39:33+02:00</time>
      </trkpt>
      <trkpt lat="48.69596" lon="-4.13114">
        <ele>66</ele>
        <time>2022-08-17T12:40:06+02:00</time>
      </trkpt>
      <trkpt lat="48.69588" lon="-4.13147">
        <ele>64</ele>
        <time>2022-08-17T12:40:30+02:00</time>
      </trkpt>
      <trkpt lat="48.6957" lon="-4.13172">
        <ele>63</ele>
        <time>2022-08-17T12:40:53+02:00</time>
      </trkpt>
      <trkpt lat="48.69547" lon="-4.13175">
        <ele>63</ele>
        <time>2022-08-17T12:41:24+02:00</time>
      </trkpt>
      <trkpt lat="48.69536" lon="-4.13205">
        <ele>65</ele>
        <time>2022-08-17T12:41:49+02:00</time>
      </trkpt>
      <trkpt lat="48.69521" lon="-4.1323">
        <ele>64</ele>
        <time>2022-08-17T12:42:14+02:00</time>
      </trkpt>
      <trkpt lat="48.69505" lon="-4.13256">
        <ele>61</ele>
        <time>2022-08-17T12:42:39+02:00</time>
      </trkpt>
      <trkpt lat="48.69484" lon="-4.13273">
        <ele>61</ele>
        <time>2022-08-17T12:44:55+02:00</time>
      </trkpt>
      <trkpt lat="48.69461" lon="-4.13279">
        <ele>61</ele>
        <time>2022-08-17T12:45:17+02:00</time>
      </trkpt>
      <trkpt lat="48.69445" lon="-4.13304">
        <ele>61</ele>
        <time>2022-08-17T12:45:39+02:00</time>
      </trkpt>
      <trkpt lat="48.69465" lon="-4.13323">
        <ele>61</ele>
        <time>2022-08-17T12:46:37+02:00</time>
      </trkpt>
      <trkpt lat="48.69484" lon="-4.13344">
        <ele>61</ele>
        <time>2022-08-17T12:47:03+02:00</time>
      </trkpt>
      <trkpt lat="48.69474" lon="-4.13376">
        <ele>61</ele>
        <time>2022-08-17T12:47:40+02:00</time>
      </trkpt>
      <trkpt lat="48.69483" lon="-4.13345">
        <ele>61</ele>
        <time>2022-08-17T12:50:20+02:00</time>
      </trkpt>
      <trkpt lat="48.69467" lon="-4.13319">
        <ele>61</ele>
        <time>2022-08-17T12:51:00+02:00</time>
      </trkpt>
      <trkpt lat="48.69442" lon="-4.13326">
        <ele>61</ele>
        <time>2022-08-17T12:51:23+02:00</time>
      </trkpt>
      <trkpt lat="48.69418" lon="-4.13323">
        <ele>61</ele>
        <time>2022-08-17T12:51:45+02:00</time>
      </trkpt>
      <trkpt lat="48.69422" lon="-4.13359">
        <ele>61</ele>
        <time>2022-08-17T12:52:05+02:00</time>
      </trkpt>
      <trkpt lat="48.69415" lon="-4.13396">
        <ele>66</ele>
        <time>2022-08-17T12:56:13+02:00</time>
      </trkpt>
      <trkpt lat="48.6942" lon="-4.13432">
        <ele>67</ele>
        <time>2022-08-17T12:56:41+02:00</time>
      </trkpt>
      <trkpt lat="48.69403" lon="-4.1346">
        <ele>61</ele>
        <time>2022-08-17T12:57:01+02:00</time>
      </trkpt>
      <trkpt lat="48.69384" lon="-4.13482">
        <ele>61</ele>
        <time>2022-08-17T12:57:22+02:00</time>
      </trkpt>
      <trkpt lat="48.69363" lon="-4.13504">
        <ele>61</ele>
        <time>2022-08-17T12:57:43+02:00</time>
      </trkpt>
      <trkpt lat="48.69349" lon="-4.13529">
        <ele>61</ele>
        <time>2022-08-17T12:58:03+02:00</time>
      </trkpt>
      <trkpt lat="48.69332" lon="-4.13553">
        <ele>67</ele>
        <time>2022-08-17T12:58:21+02:00</time>
      </trkpt>
      <trkpt lat="48.69314" lon="-4.13581">
        <ele>69</ele>
        <time>2022-08-17T12:58:45+02:00</time>
      </trkpt>
      <trkpt lat="48.69304" lon="-4.13613">
        <ele>71</ele>
        <time>2022-08-17T12:59:05+02:00</time>
      </trkpt>
      <trkpt lat="48.69294" lon="-4.13646">
        <ele>59</ele>
        <time>2022-08-17T12:59:27+02:00</time>
      </trkpt>
      <trkpt lat="48.69284" lon="-4.1368">
        <ele>59</ele>
        <time>2022-08-17T12:59:49+02:00</time>
      </trkpt>
      <trkpt lat="48.69273" lon="-4.13714">
        <ele>59</ele>
        <time>2022-08-17T13:00:11+02:00</time>
      </trkpt>
      <trkpt lat="48.6927" lon="-4.13748">
        <ele>59</ele>
        <time>2022-08-17T13:00:28+02:00</time>
      </trkpt>
      <trkpt lat="48.69264" lon="-4.13783">
        <ele>59</ele>
        <time>2022-08-17T13:00:52+02:00</time>
      </trkpt>
      <trkpt lat="48.69257" lon="-4.13819">
        <ele>59</ele>
        <time>2022-08-17T13:01:17+02:00</time>
      </trkpt>
      <trkpt lat="48.69251" lon="-4.13853">
        <ele>71</ele>
        <time>2022-08-17T13:01:37+02:00</time>
      </trkpt>
      <trkpt lat="48.69245" lon="-4.13887">
        <ele>60</ele>
        <time>2022-08-17T13:01:55+02:00</time>
      </trkpt>
      <trkpt lat="48.69242" lon="-4.13921">
        <ele>60</ele>
        <time>2022-08-17T13:02:16+02:00</time>
      </trkpt>
      <trkpt lat="48.69236" lon="-4.13957">
        <ele>69</ele>
        <time>2022-08-17T13:02:45+02:00</time>
      </trkpt>
      <trkpt lat="48.69233" lon="-4.13994">
        <ele>59</ele>
        <time>2022-08-17T13:03:13+02:00</time>
      </trkpt>
      <trkpt lat="48.69229" lon="-4.14031">
        <ele>69</ele>
        <time>2022-08-17T13:03:55+02:00</time>
      </trkpt>
      <trkpt lat="48.69225" lon="-4.14068">
        <ele>60</ele>
        <time>2022-08-17T13:04:19+02:00</time>
      </trkpt>
      <trkpt lat="48.69223" lon="-4.14103">
        <ele>67</ele>
        <time>2022-08-17T13:04:39+02:00</time>
      </trkpt>
      <trkpt lat="48.6922" lon="-4.14138">
        <ele>60</ele>
        <time>2022-08-17T13:05:03+02:00</time>
      </trkpt>
      <trkpt lat="48.69218" lon="-4.14172">
        <ele>58</ele>
        <time>2022-08-17T13:05:21+02:00</time>
      </trkpt>
      <trkpt lat="48.69213" lon="-4.14208">
        <ele>67</ele>
        <time>2022-08-17T13:05:44+02:00</time>
      </trkpt>
      <trkpt lat="48.6921" lon="-4.14244">
        <ele>57</ele>
        <time>2022-08-17T13:06:06+02:00</time>
      </trkpt>
      <trkpt lat="48.69203" lon="-4.14279">
        <ele>57</ele>
        <time>2022-08-17T13:06:29+02:00</time>
      </trkpt>
      <trkpt lat="48.69205" lon="-4.14314">
        <ele>60</ele>
        <time>2022-08-17T13:07:01+02:00</time>
      </trkpt>
      <trkpt lat="48.69205" lon="-4.1435">
        <ele>59</ele>
        <time>2022-08-17T13:07:20+02:00</time>
      </trkpt>
      <trkpt lat="48.6921" lon="-4.14383">
        <ele>59</ele>
        <time>2022-08-17T13:07:51+02:00</time>
      </trkpt>
      <trkpt lat="48.69211" lon="-4.14418">
        <ele>59</ele>
        <time>2022-08-17T13:08:11+02:00</time>
      </trkpt>
      <trkpt lat="48.69217" lon="-4.14452">
        <ele>59</ele>
        <time>2022-08-17T13:08:31+02:00</time>
      </trkpt>
      <trkpt lat="48.69216" lon="-4.1449">
        <ele>57</ele>
        <time>2022-08-17T13:08:54+02:00</time>
      </trkpt>
      <trkpt lat="48.69217" lon="-4.14525">
        <ele>59</ele>
        <time>2022-08-17T13:09:25+02:00</time>
      </trkpt>
      <trkpt lat="48.69218" lon="-4.1456">
        <ele>58</ele>
        <time>2022-08-17T13:09:48+02:00</time>
      </trkpt>
      <trkpt lat="48.69222" lon="-4.14594">
        <ele>58</ele>
        <time>2022-08-17T13:10:08+02:00</time>
      </trkpt>
      <trkpt lat="48.69226" lon="-4.14628">
        <ele>61</ele>
        <time>2022-08-17T13:10:29+02:00</time>
      </trkpt>
      <trkpt lat="48.69226" lon="-4.14665">
        <ele>67</ele>
        <time>2022-08-17T13:10:50+02:00</time>
      </trkpt>
      <trkpt lat="48.69222" lon="-4.147">
        <ele>61</ele>
        <time>2022-08-17T13:11:11+02:00</time>
      </trkpt>
      <trkpt lat="48.69224" lon="-4.14735">
        <ele>68</ele>
        <time>2022-08-17T13:11:38+02:00</time>
      </trkpt>
      <trkpt lat="48.69223" lon="-4.14771">
        <ele>61</ele>
        <time>2022-08-17T13:12:00+02:00</time>
      </trkpt>
      <trkpt lat="48.69225" lon="-4.14807">
        <ele>66</ele>
        <time>2022-08-17T13:12:22+02:00</time>
      </trkpt>
      <trkpt lat="48.69223" lon="-4.14845">
        <ele>66</ele>
        <time>2022-08-17T13:12:43+02:00</time>
      </trkpt>
      <trkpt lat="48.69228" lon="-4.14881">
        <ele>66</ele>
        <time>2022-08-17T13:13:03+02:00</time>
      </trkpt>
      <trkpt lat="48.69224" lon="-4.14916">
        <ele>56</ele>
        <time>2022-08-17T13:13:23+02:00</time>
      </trkpt>
      <trkpt lat="48.69221" lon="-4.1495">
        <ele>60</ele>
        <time>2022-08-17T13:13:44+02:00</time>
      </trkpt>
      <trkpt lat="48.69213" lon="-4.14985">
        <ele>61</ele>
        <time>2022-08-17T13:14:07+02:00</time>
      </trkpt>
      <trkpt lat="48.69202" lon="-4.15017">
        <ele>61</ele>
        <time>2022-08-17T13:14:28+02:00</time>
      </trkpt>
      <trkpt lat="48.69192" lon="-4.15048">
        <ele>61</ele>
        <time>2022-08-17T13:14:58+02:00</time>
      </trkpt>
      <trkpt lat="48.69183" lon="-4.15081">
        <ele>60</ele>
        <time>2022-08-17T13:15:20+02:00</time>
      </trkpt>
      <trkpt lat="48.69172" lon="-4.15112">
        <ele>60</ele>
        <time>2022-08-17T13:15:43+02:00</time>
      </trkpt>
      <trkpt lat="48.69162" lon="-4.15145">
        <ele>60</ele>
        <time>2022-08-17T13:16:05+02:00</time>
      </trkpt>
      <trkpt lat="48.69155" lon="-4.1518">
        <ele>66</ele>
        <time>2022-08-17T13:16:27+02:00</time>
      </trkpt>
      <trkpt lat="48.69149" lon="-4.15216">
        <ele>68</ele>
        <time>2022-08-17T13:16:51+02:00</time>
      </trkpt>
      <trkpt lat="48.69143" lon="-4.15251">
        <ele>67</ele>
        <time>2022-08-17T13:17:18+02:00</time>
      </trkpt>
      <trkpt lat="48.69135" lon="-4.15285">
        <ele>66</ele>
        <time>2022-08-17T13:17:37+02:00</time>
      </trkpt>
      <trkpt lat="48.69127" lon="-4.15319">
        <ele>65</ele>
        <time>2022-08-17T13:18:54+02:00</time>
      </trkpt>
      <trkpt lat="48.69113" lon="-4.15346">
        <ele>65</ele>
        <time>2022-08-17T13:19:18+02:00</time>
      </trkpt>
      <trkpt lat="48.69104" lon="-4.1538">
        <ele>66</ele>
        <time>2022-08-17T13:19:48+02:00</time>
      </trkpt>
      <trkpt lat="48.69095" lon="-4.15415">
        <ele>66</ele>
        <time>2022-08-17T13:20:08+02:00</time>
      </trkpt>
      <trkpt lat="48.69078" lon="-4.15438">
        <ele>66</ele>
        <time>2022-08-17T13:20:28+02:00</time>
      </trkpt>
      <trkpt lat="48.6906" lon="-4.15464">
        <ele>66</ele>
        <time>2022-08-17T13:20:51+02:00</time>
      </trkpt>
      <trkpt lat="48.69039" lon="-4.15482">
        <ele>66</ele>
        <time>2022-08-17T13:21:11+02:00</time>
      </trkpt>
      <trkpt lat="48.69014" lon="-4.1549">
        <ele>62</ele>
        <time>2022-08-17T13:21:32+02:00</time>
      </trkpt>
      <trkpt lat="48.6899" lon="-4.15498">
        <ele>62</ele>
        <time>2022-08-17T13:21:55+02:00</time>
      </trkpt>
      <trkpt lat="48.68977" lon="-4.15527">
        <ele>63</ele>
        <time>2022-08-17T13:22:21+02:00</time>
      </trkpt>
      <trkpt lat="48.68969" lon="-4.15563">
        <ele>62</ele>
        <time>2022-08-17T13:22:42+02:00</time>
      </trkpt>
      <trkpt lat="48.68961" lon="-4.15595">
        <ele>62</ele>
        <time>2022-08-17T13:23:01+02:00</time>
      </trkpt>
      <trkpt lat="48.68951" lon="-4.15628">
        <ele>61</ele>
        <time>2022-08-17T13:23:21+02:00</time>
      </trkpt>
      <trkpt lat="48.68941" lon="-4.1566">
        <ele>62</ele>
        <time>2022-08-17T13:23:42+02:00</time>
      </trkpt>
      <trkpt lat="48.68934" lon="-4.15695">
        <ele>61</ele>
        <time>2022-08-17T13:24:01+02:00</time>
      </trkpt>
      <trkpt lat="48.68921" lon="-4.15724">
        <ele>61</ele>
        <time>2022-08-17T13:24:20+02:00</time>
      </trkpt>
      <trkpt lat="48.68914" lon="-4.15759">
        <ele>61</ele>
        <time>2022-08-17T13:24:40+02:00</time>
      </trkpt>
      <trkpt lat="48.68907" lon="-4.15793">
        <ele>60</ele>
        <time>2022-08-17T13:25:00+02:00</time>
      </trkpt>
      <trkpt lat="48.68898" lon="-4.15827">
        <ele>60</ele>
        <time>2022-08-17T13:25:19+02:00</time>
      </trkpt>
      <trkpt lat="48.68896" lon="-4.15861">
        <ele>60</ele>
        <time>2022-08-17T13:25:36+02:00</time>
      </trkpt>
      <trkpt lat="48.68892" lon="-4.15899">
        <ele>60</ele>
        <time>2022-08-17T13:26:01+02:00</time>
      </trkpt>
      <trkpt lat="48.6889" lon="-4.15934">
        <ele>60</ele>
        <time>2022-08-17T13:26:20+02:00</time>
      </trkpt>
      <trkpt lat="48.68911" lon="-4.15945">
        <ele>60</ele>
        <time>2022-08-17T13:26:35+02:00</time>
      </trkpt>
      <trkpt lat="48.68933" lon="-4.15957">
        <ele>60</ele>
        <time>2022-08-17T13:26:52+02:00</time>
      </trkpt>
    </trkseg>
  </trk>
</gpx>